Time;durP1;ratioP1;P1;durP2;ratioP2;P2;SDS_P1;SDS_P2;PMS_P1;PMS_P2;Temp;Humidity;BMP_temperature;BMP_pressure;BME280_temperature;BME280_humidity;BME280_pressure;Samples;Min_cycle;Max_cycle;Signal;HPM_P1;HPM_P2
2023/01/10 00:00:24;;;;;;;;;4.17;4.17;;;;;8.05;62.81;101746.25;1988653;28;2750261;-79
2023/01/10 00:01:37;;;;;;;;;6.00;4.83;;;;;8.05;63.16;101746.25;2011893;28;2750266;-79
2023/01/10 00:02:48;;;;;;;;;12.67;6.00;;;;;8.05;63.07;101741.00;1962617;28;2764950;-79
2023/01/10 00:04:01;;;;;;;;;5.40;3.40;;;;;8.04;62.99;101744.50;2012836;28;2748174;-79
2023/01/10 00:05:15;;;;;;;;;5.83;3.00;;;;;8.03;62.70;101743.63;1989805;28;2754453;-79
2023/01/10 00:06:28;;;;;;;;;5.83;2.83;;;;;8.00;62.83;101741.00;2011793;28;2748186;-79
2023/01/10 00:07:41;;;;;;;;;8.17;3.17;;;;;8.00;62.99;101738.41;1989504;28;2738804;-79
2023/01/10 00:08:56;;;;;;;;;8.50;2.83;;;;;8.00;63.16;101746.25;1988872;28;2740938;-79
2023/01/10 00:10:07;;;;;;;;;10.00;5.00;;;;;7.99;62.88;101748.03;1986141;28;2766377;-79
2023/01/10 00:14:27;;;;;;;;;7.17;4.00;;;;;7.96;62.84;101757.63;2012183;28;2735714;-79
2023/01/10 00:15:40;;;;;;;;;3.33;2.00;;;;;7.94;63.32;101747.19;2009774;28;2739841;-79
2023/01/10 00:16:54;;;;;;;;;4.00;3.00;;;;;7.95;63.19;101755.91;2011597;28;2737837;-79
2023/01/10 00:18:07;;;;;;;;;4.67;3.00;;;;;7.94;63.23;101754.16;2010698;28;2737769;-79
2023/01/10 00:19:18;;;;;;;;;11.00;4.67;;;;;7.94;63.19;101762.00;1979452;28;2774311;-79
2023/01/10 00:20:30;;;;;;;;;5.00;2.67;;;;;7.92;63.00;101767.25;2009770;28;2741952;-79
2023/01/10 00:21:43;;;;;;;;;8.50;6.00;;;;;7.91;63.56;101770.75;1988980;28;2751443;-79
2023/01/10 00:22:56;;;;;;;;;9.17;4.50;;;;;7.92;63.52;101769.00;1987752;28;2752408;-79
2023/01/10 00:24:29;;;;;;;;;3.00;2.50;;;;;7.92;63.10;101771.63;1987485;28;2744015;-79
2023/01/10 00:25:42;;;;;;;;;6.00;3.50;;;;;7.92;62.99;101766.38;1980875;28;2752341;-79
2023/01/10 00:26:55;;;;;;;;;6.00;4.00;;;;;7.90;63.22;101779.50;2003365;28;2754920;-79
2023/01/10 00:28:22;;;;;;;;;4.00;3.83;;;;;7.90;63.08;101779.50;2004516;28;2736749;-80
2023/01/10 00:29:36;;;;;;;;;6.67;5.17;;;;;7.88;62.99;101782.09;2004774;28;2739841;-80
2023/01/10 00:30:53;;;;;;;;;7.67;7.50;;;;;7.88;62.96;101789.94;1988660;28;2730482;-79
2023/01/10 00:32:07;;;;;;;;;11.50;7.33;;;;;7.88;63.08;101787.34;2009179;28;2755492;-79
2023/01/10 00:33:20;;;;;;;;;8.83;6.83;;;;;7.88;63.36;101787.34;2011441;28;2736755;-79
2023/01/10 00:34:34;;;;;;;;;5.00;3.50;;;;;7.90;63.41;101794.31;2011716;28;2752444;-80
2023/01/10 00:35:47;;;;;;;;;6.33;4.33;;;;;7.88;63.03;101792.56;1981383;28;2750341;-79
2023/01/10 00:36:57;;;;;;;;;12.67;6.00;;;;;7.88;63.24;101808.28;1984076;28;3486693;-79
2023/01/10 00:38:09;;;;;;;;;5.33;4.67;;;;;7.87;62.89;101800.44;2009861;28;2745046;-79
2023/01/10 00:39:26;;;;;;;;;6.67;4.83;;;;;7.85;62.89;101797.81;1988306;28;2748202;-79
2023/01/10 00:40:36;;;;;;;;;8.33;2.33;;;;;7.84;62.96;101806.56;1982907;28;3488777;-79
2023/01/10 00:44:45;;;;;;;;;7.33;5.00;;;;;7.83;63.14;101810.03;1978231;28;3461679;-79
2023/01/10 00:45:58;;;;;;;;;4.80;4.60;;;;;7.83;63.24;101799.56;2016457;28;2741931;-79
2023/01/10 00:47:12;;;;;;;;;4.33;3.00;;;;;7.83;63.20;101803.94;2013050;28;2739849;-79
2023/01/10 00:48:25;;;;;;;;;4.50;3.00;;;;;7.81;63.16;101801.31;2009726;28;2746111;-79
2023/01/10 00:49:39;;;;;;;;;8.50;4.33;;;;;7.83;63.26;101806.53;2004088;28;2746096;-79
2023/01/10 00:50:52;;;;;;;;;9.00;6.00;;;;;7.82;63.04;101802.19;2003925;28;2741374;-79
2023/01/10 00:52:03;;;;;;;;;8.67;4.67;;;;;7.82;63.59;101805.69;1977032;28;3463787;-79
2023/01/10 00:53:15;;;;;;;;;8.50;5.50;;;;;7.82;63.52;101805.69;2003024;28;2747160;-79
2023/01/10 00:54:25;;;;;;;;;6.33;5.00;;;;;7.82;63.05;101813.56;1985818;28;2747136;-79
2023/01/10 00:55:36;;;;;;;;;4.33;2.67;;;;;7.82;63.48;101812.69;2008865;28;2750276;-79
2023/01/10 00:56:50;;;;;;;;;4.00;3.00;;;;;7.83;63.13;101811.78;1987867;28;2754425;-79
2023/01/10 00:58:03;;;;;;;;;3.83;2.00;;;;;7.82;63.20;101813.56;2012619;28;2733066;-79
2023/01/10 00:59:16;;;;;;;;;5.50;2.83;;;;;7.82;63.26;101816.16;2011698;28;2744046;-79
2023/01/10 01:00:30;;;;;;;;;1.17;1.00;;;;;7.82;63.03;101810.94;1989091;28;2725266;-79
2023/01/10 01:01:43;;;;;;;;;4.00;1.67;;;;;7.80;63.05;101809.19;2013049;28;2746468;-79
2023/01/10 01:02:56;;;;;;;;;6.33;2.33;;;;;7.80;62.80;101811.81;2016675;28;2746146;-79
2023/01/10 01:04:09;;;;;;;;;5.17;3.00;;;;;7.79;62.96;101813.56;1988692;28;2754427;-79
2023/01/10 01:05:23;;;;;;;;;7.50;3.00;;;;;7.78;63.34;101826.66;1985316;28;2740886;-79
2023/01/10 01:06:36;;;;;;;;;4.00;3.00;;;;;7.76;63.52;101819.66;2009641;28;2754534;-79
2023/01/10 01:07:50;;;;;;;;;4.17;2.83;;;;;7.76;63.27;101818.78;2010810;28;2754424;-79
2023/01/10 01:09:04;;;;;;;;;4.83;3.00;;;;;7.73;62.74;101818.81;1988620;28;2744036;-79
2023/01/10 01:10:27;;;;;;;;;2.83;1.83;;;;;7.72;63.70;101817.06;1988452;28;2752385;-79
2023/01/10 01:11:40;;;;;;;;;4.50;2.00;;;;;7.71;63.19;101821.44;2010987;28;2740890;-79
2023/01/10 01:12:51;;;;;;;;;11.00;3.00;;;;;7.70;63.08;101818.81;1984656;28;2785742;-79
2023/01/10 01:14:03;;;;;;;;;3.33;2.00;;;;;7.70;63.29;101818.81;1985274;28;2750352;-79
2023/01/10 01:15:16;;;;;;;;;7.00;2.83;;;;;7.70;63.29;101816.22;2010336;28;2752919;-79
2023/01/10 01:16:29;;;;;;;;;3.33;2.00;;;;;7.69;63.10;101817.06;1989665;28;2727362;-79
2023/01/10 01:17:42;;;;;;;;;4.50;2.50;;;;;7.70;63.62;101818.81;2012718;28;2731520;-79
2023/01/10 01:18:56;;;;;;;;;4.83;4.00;;;;;7.68;63.69;101826.66;2011945;28;2747156;-79
2023/01/10 01:20:10;;;;;;;;;2.33;1.67;;;;;7.67;63.41;101835.41;1988169;28;2746091;-79
2023/01/10 01:21:27;;;;;;;;;4.33;3.83;;;;;7.67;63.36;101832.78;2019022;28;2754439;-79
2023/01/10 01:22:40;;;;;;;;;2.67;2.00;;;;;7.67;63.37;101834.53;1994028;28;2739837;-79
2023/01/10 01:23:57;;;;;;;;;3.33;1.50;;;;;7.67;63.68;101840.66;2007474;28;2734699;-79
2023/01/10 01:25:11;;;;;;;;;2.33;2.33;;;;;7.68;63.91;101841.53;2011301;28;2751306;-79
2023/01/10 01:26:24;;;;;;;;;3.00;2.67;;;;;7.66;63.48;101836.28;1981782;28;2750297;-79
2023/01/10 01:27:37;;;;;;;;;4.33;2.67;;;;;7.64;63.36;101846.75;1983630;28;2732581;-79
2023/01/10 01:28:51;;;;;;;;;3.00;1.83;;;;;7.64;63.41;101846.75;2013359;28;2737777;-79
2023/01/10 01:30:05;;;;;;;;;4.83;1.00;;;;;7.64;63.17;101851.13;2011731;28;2741996;-79
2023/01/10 01:31:19;;;;;;;;;2.83;2.00;;;;;7.63;63.54;101855.47;2013612;28;2752329;-79
2023/01/10 01:32:33;;;;;;;;;4.00;1.00;;;;;7.63;63.68;101849.38;1995657;28;2736732;-79
2023/01/10 01:33:46;;;;;;;;;4.17;3.17;;;;;7.64;63.71;101858.97;2012573;28;2752365;-79
2023/01/10 01:34:59;;;;;;;;;7.50;2.33;;;;;7.63;63.45;101865.94;2007865;28;2752352;-79
2023/01/10 01:36:13;;;;;;;;;4.50;2.50;;;;;7.64;63.58;101857.22;2013752;28;2750261;-79
2023/01/10 01:37:26;;;;;;;;;5.67;2.83;;;;;7.63;63.76;101863.31;1996247;28;2763265;-79
2023/01/10 01:38:40;;;;;;;;;0.83;0.33;;;;;7.64;63.42;101861.56;1997993;28;2724240;-79
2023/01/10 01:39:54;;;;;;;;;2.83;1.83;;;;;7.63;63.79;101865.94;2013472;28;2737754;-79
2023/01/10 01:41:55;;;;;;;;;6.00;2.00;;;;;7.62;63.62;101861.59;1994584;28;2752432;-79
2023/01/10 01:42:38;;;;;;;;;1.33;1.33;;;;;7.62;63.59;101858.97;2017872;28;2728403;-79
2023/01/10 01:43:59;;;;;;;;;2.83;1.00;;;;;7.61;64.16;101854.59;2012619;28;2729429;-79
2023/01/10 01:45:21;;;;;;;;;6.17;4.50;;;;;7.60;63.93;101858.13;2011155;28;2746091;-79
2023/01/10 01:46:37;;;;;;;;;5.17;2.00;;;;;7.60;64.04;101867.69;2023643;28;2736752;-79
2023/01/10 01:48:00;;;;;;;;;4.00;2.50;;;;;7.59;63.94;101858.97;2010948;28;2740883;-79
2023/01/10 01:49:21;;;;;;;;;5.00;2.00;;;;;7.59;63.98;101864.22;2004994;28;2747144;-79
2023/01/10 01:50:40;;;;;;;;;3.83;1.67;;;;;7.58;63.88;101862.44;1983079;28;2733616;-79
2023/01/10 01:52:00;;;;;;;;;5.67;2.00;;;;;7.57;64.06;101873.81;1995622;28;2754416;-79
2023/01/10 01:53:21;;;;;;;;;3.17;2.50;;;;;7.56;64.27;101869.44;1994404;28;2754427;-79
2023/01/10 01:54:34;;;;;;;;;9.67;3.00;;;;;7.58;64.29;101872.06;1986543;28;3489827;-79
2023/01/10 01:55:49;;;;;;;;;3.50;3.00;;;;;7.57;63.94;101868.56;2020063;28;2742334;-79
2023/01/10 01:57:17;;;;;;;;;3.00;1.00;;;;;7.56;63.95;101860.72;1994537;28;2735694;-79
2023/01/10 01:58:47;;;;;;;;;3.67;2.00;;;;;7.56;63.93;101865.94;2015610;28;2742434;-79
2023/01/10 02:00:03;;;;;;;;;3.00;1.67;;;;;7.55;64.10;101870.34;2017751;28;2729449;-79
2023/01/10 02:01:17;;;;;;;;;3.83;3.00;;;;;7.56;64.19;101871.19;2012576;28;2746114;-79
2023/01/10 02:02:37;;;;;;;;;3.67;1.00;;;;;7.54;63.98;101869.47;2014572;28;2730518;-79
2023/01/10 02:04:07;;;;;;;;;2.83;1.83;;;;;7.56;64.39;101885.13;2020151;28;2730470;-79
2023/01/10 02:05:22;;;;;;;;;4.83;2.67;;;;;7.56;64.39;101882.53;2009512;28;2754420;-79
2023/01/10 02:06:36;;;;;;;;;3.83;3.00;;;;;7.56;64.03;101884.25;1989310;28;2753394;-79
2023/01/10 02:08:00;;;;;;;;;4.33;2.00;;;;;7.57;64.59;101881.66;1989256;28;2748666;-79
2023/01/10 02:09:24;;;;;;;;;6.83;2.67;;;;;7.57;64.81;101880.78;1990922;28;2753379;-79
2023/01/10 02:10:55;;;;;;;;;1.33;1.33;;;;;7.57;64.48;101891.25;2017513;28;2735718;-79
2023/01/10 02:12:10;;;;;;;;;3.17;2.33;;;;;7.54;64.61;101887.78;2007385;28;2752361;-79
2023/01/10 02:13:25;;;;;;;;;4.67;2.00;;;;;7.54;64.35;101890.38;1984842;28;2752352;-79
2023/01/10 02:14:41;;;;;;;;;2.67;1.67;;;;;7.53;64.92;101893.00;1991136;28;2725287;-79
2023/01/10 02:15:54;;;;;;;;;5.83;2.00;;;;;7.54;64.37;101894.75;2012518;28;2756507;-79
2023/01/10 02:17:11;;;;;;;;;3.83;3.83;;;;;7.52;65.03;101904.34;2007627;28;2748218;-79
2023/01/10 02:18:24;;;;;;;;;8.00;1.83;;;;;7.52;64.79;101905.22;2005195;28;2760689;-79
2023/01/10 02:20:01;;;;;;;;;2.50;2.50;;;;;7.52;64.49;101906.97;1988831;28;2748190;-79
2023/01/10 02:21:33;;;;;;;;;1.67;1.50;;;;;7.50;64.80;101916.56;2011899;28;2733620;-79
2023/01/10 02:22:49;;;;;;;;;3.00;1.83;;;;;7.49;64.39;101920.03;2011504;28;2739862;-79
2023/01/10 02:24:30;;;;;;;;;1.50;0.00;;;;;7.49;64.74;101920.03;2013794;28;2739853;-79
2023/01/10 02:26:12;;;;;;;;;2.33;2.33;;;;;7.45;64.58;101919.19;2011705;28;2754455;-79
2023/01/10 02:27:36;;;;;;;;;7.00;4.00;;;;;7.44;64.60;101925.28;2009702;28;2752376;-79
2023/01/10 02:29:08;;;;;;;;;3.67;2.17;;;;;7.41;64.66;101923.53;2011905;28;2746126;-79
2023/01/10 02:30:36;;;;;;;;;3.50;3.00;;;;;7.41;64.60;101927.88;2019008;28;2754436;-79
2023/01/10 02:32:10;;;;;;;;;3.33;2.00;;;;;7.40;64.62;101926.16;1989848;28;2728383;-79
2023/01/10 02:33:33;;;;;;;;;3.67;3.00;;;;;7.38;65.34;101922.69;2006881;28;2754853;-79
2023/01/10 02:35:09;;;;;;;;;6.17;3.50;;;;;7.36;64.63;101927.88;2004204;28;2748217;-79
2023/01/10 02:36:30;;;;;;;;;2.50;2.33;;;;;7.36;65.06;101927.88;2004688;28;2750258;-79
2023/01/10 02:37:46;;;;;;;;;3.33;1.50;;;;;7.36;65.15;101925.28;2005802;28;2729426;-79
2023/01/10 02:39:26;;;;;;;;;7.00;3.00;;;;;7.36;65.29;101925.28;2013076;28;2754431;-80
2023/01/10 02:41:00;;;;;;;;;3.00;3.00;;;;;7.35;65.19;101926.16;2015220;28;2745089;-79
2023/01/10 02:42:22;;;;;;;;;3.83;2.00;;;;;7.35;65.09;101915.69;2010906;28;2748182;-79
2023/01/10 02:43:50;;;;;;;;;2.83;2.83;;;;;7.35;65.41;101923.53;2003984;28;2752361;-79
2023/01/10 02:45:32;;;;;;;;;3.17;2.33;;;;;7.35;65.47;101920.94;2001334;28;2730534;-79
2023/01/10 02:46:48;;;;;;;;;1.00;1.00;;;;;7.36;65.69;101924.44;2003793;28;2736784;-79
2023/01/10 02:48:01;;;;;;;;;1.33;1.33;;;;;7.37;65.61;101931.38;2013417;28;2737763;-79
2023/01/10 02:49:14;;;;;;;;;4.83;1.50;;;;;7.35;65.27;101931.41;2015899;28;2744047;-79
2023/01/10 02:50:43;;;;;;;;;2.00;2.00;;;;;7.35;65.42;101923.53;2009167;28;2744036;-79
2023/01/10 02:51:57;;;;;;;;;4.67;2.17;;;;;7.36;65.06;101930.50;2012270;28;2751308;-79
2023/01/10 02:53:19;;;;;;;;;3.33;3.33;;;;;7.36;64.98;101932.28;2010802;28;2750274;-79
2023/01/10 02:54:33;;;;;;;;;4.33;4.17;;;;;7.34;65.32;101945.31;2006580;28;2752349;-79
2023/01/10 02:55:56;;;;;;;;;5.33;2.00;;;;;7.35;65.50;101941.84;2010589;28;2754444;-79
2023/01/10 02:57:15;;;;;;;;;4.00;2.00;;;;;7.35;65.16;101943.59;1981278;28;2737766;-79
2023/01/10 02:58:50;;;;;;;;;4.67;2.00;;;;;7.33;65.01;101946.22;2009441;28;2736713;-79
2023/01/10 03:00:11;;;;;;;;;6.00;3.67;;;;;7.31;65.02;101954.03;2011500;28;2752354;-79
2023/01/10 03:01:43;;;;;;;;;3.83;2.00;;;;;7.31;65.24;101950.56;2009081;28;2742982;-79
2023/01/10 03:03:15;;;;;;;;;3.33;1.67;;;;;7.33;65.35;101951.44;2011569;28;2744016;-79
2023/01/10 03:04:44;;;;;;;;;4.00;2.33;;;;;7.32;65.35;101950.56;2012511;28;2746146;-79
2023/01/10 03:06:12;;;;;;;;;5.00;2.50;;;;;7.33;65.06;101946.22;1989877;28;2737770;-79
2023/01/10 03:07:45;;;;;;;;;3.00;3.00;;;;;7.33;65.37;101956.69;2012985;28;2739880;-79
2023/01/10 03:09:30;;;;;;;;;5.33;3.00;;;;;7.32;65.08;101949.69;1989739;28;2752400;-79
2023/01/10 03:10:51;;;;;;;;;5.00;2.33;;;;;7.32;65.39;101934.88;1996520;28;2748186;-79
2023/01/10 03:12:23;;;;;;;;;5.67;3.67;;;;;7.32;65.13;101941.84;2009567;28;2745046;-79
2023/01/10 03:13:48;;;;;;;;;1.67;1.67;;;;;7.32;65.18;101936.63;2011110;28;2751316;-79
2023/01/10 03:15:04;;;;;;;;;3.50;2.00;;;;;7.32;65.02;101934.88;2012404;28;2746142;-79
2023/01/10 03:16:22;;;;;;;;;5.33;3.00;;;;;7.33;65.54;101933.16;2012861;28;2752357;-79
2023/01/10 03:17:38;;;;;;;;;4.50;3.50;;;;;7.32;65.71;101936.63;1989213;28;2754437;-79
2023/01/10 03:19:20;;;;;;;;;5.00;2.33;;;;;7.34;65.19;101941.84;2012261;28;2754447;-79
2023/01/10 03:20:37;;;;;;;;;1.67;1.17;;;;;7.34;65.44;101934.00;1988538;28;2732557;-79
2023/01/10 03:21:55;;;;;;;;;2.33;2.17;;;;;7.33;65.19;101935.75;2005035;28;2754417;-79
2023/01/10 03:23:12;;;;;;;;;2.50;0.67;;;;;7.34;65.46;101936.59;1988185;28;2725298;-79
2023/01/10 03:24:53;;;;;;;;;3.17;1.33;;;;;7.34;65.30;101937.47;2010180;28;2740891;-79
2023/01/10 03:26:08;;;;;;;;;3.33;2.50;;;;;7.33;65.26;101933.16;2004107;28;2752376;-79
2023/01/10 03:27:50;;;;;;;;;5.00;3.00;;;;;7.34;65.14;101942.72;2003895;28;2754421;-80
2023/01/10 03:29:09;;;;;;;;;7.00;3.00;;;;;7.33;65.75;101941.00;1981506;28;2754436;-80
2023/01/10 03:30:31;;;;;;;;;2.00;2.00;;;;;7.33;65.61;101935.75;2004219;28;2741972;-79
2023/01/10 03:31:51;;;;;;;;;2.83;2.00;;;;;7.34;65.44;101936.59;2005595;28;2740942;-79
2023/01/10 03:33:05;;;;;;;;;4.17;3.00;;;;;7.33;65.51;101941.00;2019681;28;2742958;-79
2023/01/10 03:34:19;;;;;;;;;4.33;1.50;;;;;7.32;65.66;101940.09;1995422;28;2750280;-79
2023/01/10 03:35:49;;;;;;;;;3.17;1.67;;;;;7.35;65.60;101946.22;2012676;28;2752348;-79
2023/01/10 03:37:19;;;;;;;;;1.83;1.33;;;;;7.36;65.79;101955.81;2012074;28;2750262;-79
2023/01/10 03:38:50;;;;;;;;;2.00;1.00;;;;;7.35;65.83;101954.94;2012943;28;2734633;-79
2023/01/10 03:40:19;;;;;;;;;3.00;2.50;;;;;7.34;65.58;101952.28;2011853;28;2740891;-79
2023/01/10 03:41:36;;;;;;;;;4.00;1.33;;;;;7.33;65.30;101951.44;2005415;28;2735691;-79
2023/01/10 03:44:44;;;;;;;;;4.67;2.00;;;;;7.34;65.86;101954.91;2011492;28;2754424;-79
2023/01/10 03:46:03;;;;;;;;;4.00;2.50;;;;;7.33;65.83;101956.69;1994401;28;2750288;-79
2023/01/10 03:47:34;;;;;;;;;3.83;1.00;;;;;7.33;65.82;101954.06;2012616;28;2723194;-79
2023/01/10 03:48:48;;;;;;;;;3.17;2.00;;;;;7.33;65.55;101956.69;1998732;28;2744027;-80
2023/01/10 03:50:10;;;;;;;;;7.50;2.17;;;;;7.33;66.06;101961.91;2004886;28;2742962;-80
2023/01/10 03:51:26;;;;;;;;;6.83;2.50;;;;;7.35;66.20;101967.13;2011743;28;2756558;-79
2023/01/10 03:52:41;;;;;;;;;2.00;2.00;;;;;7.34;65.51;101966.25;2019369;28;2752381;-79
2023/01/10 03:53:58;;;;;;;;;4.50;3.83;;;;;7.35;65.90;101969.75;1994897;28;2740999;-79
2023/01/10 03:55:14;;;;;;;;;5.50;2.50;;;;;7.35;65.79;101973.25;2012690;28;2744007;-79
2023/01/10 03:56:27;;;;;;;;;5.33;2.67;;;;;7.36;65.87;101977.59;1982456;28;2754783;-79
2023/01/10 03:57:41;;;;;;;;;5.67;3.00;;;;;7.36;65.46;101974.97;2008598;28;2750293;-79
2023/01/10 03:58:55;;;;;;;;;3.17;2.67;;;;;7.35;65.81;101970.63;2011923;28;2733580;-79
2023/01/10 04:00:09;;;;;;;;;2.83;2.00;;;;;7.36;65.74;101979.34;2010908;28;2747197;-79
2023/01/10 04:01:22;;;;;;;;;2.00;2.00;;;;;7.36;66.21;101985.44;2011228;28;2746105;-79
2023/01/10 04:02:35;;;;;;;;;3.67;2.50;;;;;7.38;66.20;101985.47;2013042;28;2731539;-79
2023/01/10 04:03:49;;;;;;;;;3.33;3.00;;;;;7.39;65.47;101985.44;2012060;28;2753413;-79
2023/01/10 04:05:02;;;;;;;;;3.00;2.00;;;;;7.39;65.86;101988.06;1989224;28;2750305;-79
2023/01/10 04:06:16;;;;;;;;;4.83;2.67;;;;;7.40;66.11;101988.94;2011005;28;2754431;-79
2023/01/10 04:07:30;;;;;;;;;7.33;2.67;;;;;7.41;66.08;101995.91;1988207;28;2737805;-79
2023/01/10 04:08:43;;;;;;;;;5.33;3.00;;;;;7.41;65.87;101983.69;1983590;28;2744031;-79
2023/01/10 04:09:56;;;;;;;;;3.33;2.00;;;;;7.41;66.10;101981.09;2012890;28;2727377;-79
2023/01/10 04:11:10;;;;;;;;;3.50;2.00;;;;;7.43;66.20;101986.34;2008440;28;2744058;-79
2023/01/10 04:12:23;;;;;;;;;4.00;2.33;;;;;7.42;66.43;101980.22;2004874;28;2749775;-79
2023/01/10 04:13:37;;;;;;;;;4.50;2.00;;;;;7.45;66.20;101986.31;2005713;28;2725290;-79
2023/01/10 04:14:50;;;;;;;;;5.33;4.00;;;;;7.46;65.98;101991.53;1988724;28;2742977;-79
2023/01/10 04:16:03;;;;;;;;;2.33;2.33;;;;;7.45;66.18;101986.31;1986849;28;2749221;-79
2023/01/10 04:17:17;;;;;;;;;3.33;2.00;;;;;7.45;65.68;101981.09;2012311;28;2740922;-79
2023/01/10 04:18:30;;;;;;;;;3.33;3.17;;;;;7.46;66.34;101980.22;1993011;28;2745081;-79
2023/01/10 04:19:43;;;;;;;;;3.33;3.00;;;;;7.46;66.40;101982.84;2019365;28;2734661;-79
2023/01/10 04:20:56;;;;;;;;;7.00;4.17;;;;;7.47;66.27;101981.97;2018383;28;2748198;-79
2023/01/10 04:22:10;;;;;;;;;6.50;3.00;;;;;7.47;65.98;101980.22;1989154;28;2744039;-79
2023/01/10 04:23:24;;;;;;;;;1.83;1.50;;;;;7.47;66.24;101982.84;2011502;28;2744007;-79
2023/01/10 04:24:37;;;;;;;;;4.33;3.00;;;;;7.50;66.28;101984.59;2012348;28;2752384;-79
2023/01/10 04:25:50;;;;;;;;;6.00;3.33;;;;;7.49;66.05;101988.94;2011522;28;2742962;-79
2023/01/10 04:27:04;;;;;;;;;5.00;4.00;;;;;7.51;65.76;101988.94;2011256;28;2752696;-79
2023/01/10 04:28:17;;;;;;;;;5.67;3.17;;;;;7.51;65.68;101991.53;2012270;28;2738290;-79
2023/01/10 04:29:31;;;;;;;;;4.67;3.00;;;;;7.51;65.83;101992.41;2012926;28;2739868;-79
2023/01/10 04:30:44;;;;;;;;;3.67;3.00;;;;;7.51;66.03;101991.53;2010940;28;2749283;-79
2023/01/10 04:31:57;;;;;;;;;5.50;3.00;;;;;7.50;65.81;101985.47;2010243;28;2745082;-79
2023/01/10 04:33:11;;;;;;;;;5.33;3.33;;;;;7.50;65.75;101989.81;2019443;28;2742977;-79
2023/01/10 04:34:24;;;;;;;;;3.33;3.00;;;;;7.49;66.05;101991.56;2012079;28;2731501;-79
2023/01/10 04:35:37;;;;;;;;;5.00;2.00;;;;;7.50;65.87;101992.44;2010547;28;2735714;-79
2023/01/10 04:36:51;;;;;;;;;3.83;2.83;;;;;7.50;66.40;101989.81;2013192;28;2733595;-79
2023/01/10 04:38:04;;;;;;;;;5.67;3.33;;;;;7.51;66.14;101988.94;2011837;28;2752400;-79
2023/01/10 04:39:17;;;;;;;;;5.67;3.67;;;;;7.50;66.11;101992.44;2012398;28;2747160;-79
2023/01/10 04:40:30;;;;;;;;;4.00;3.00;;;;;7.49;66.09;101988.94;1989057;28;2754457;-79
2023/01/10 04:41:44;;;;;;;;;3.67;1.00;;;;;7.50;65.99;101992.44;2013039;28;2731512;-79
2023/01/10 04:42:57;;;;;;;;;4.50;3.67;;;;;7.49;65.95;101990.69;2011232;28;2736739;-79
2023/01/10 04:44:10;;;;;;;;;4.33;4.33;;;;;7.48;66.12;101989.78;2010746;28;2741976;-79
2023/01/10 04:45:23;;;;;;;;;3.00;2.50;;;;;7.49;65.82;101993.28;2009841;28;2745093;-79
2023/01/10 04:46:37;;;;;;;;;4.67;4.50;;;;;7.49;66.41;101994.16;2003929;28;2754444;-79
2023/01/10 04:47:50;;;;;;;;;2.50;2.17;;;;;7.50;66.09;101988.06;2004014;28;2749256;-79
2023/01/10 04:49:04;;;;;;;;;3.50;3.33;;;;;7.50;65.96;101990.69;2004907;28;2748187;-79
2023/01/10 04:50:18;;;;;;;;;4.00;4.00;;;;;7.50;65.82;101982.84;2004314;28;2733600;-79
2023/01/10 04:51:31;;;;;;;;;4.17;2.50;;;;;7.50;65.95;101988.06;2004079;28;2749212;-79
2023/01/10 04:52:44;;;;;;;;;4.00;3.00;;;;;7.51;65.81;101988.94;2004903;28;2724220;-79
2023/01/10 04:53:57;;;;;;;;;9.00;4.00;;;;;7.50;65.91;101984.59;2004648;28;2755473;-79
2023/01/10 04:55:11;;;;;;;;;5.67;3.33;;;;;7.49;65.99;101986.31;1989229;28;2730478;-79
2023/01/10 04:56:24;;;;;;;;;3.00;2.00;;;;;7.50;66.09;101990.69;2009632;28;2754470;-79
2023/01/10 04:57:37;;;;;;;;;3.83;3.00;;;;;7.50;66.19;101993.31;1988916;28;2735683;-79
2023/01/10 04:58:50;;;;;;;;;4.33;3.17;;;;;7.51;66.17;101989.81;2008045;28;2746119;-79
2023/01/10 05:00:04;;;;;;;;;4.33;3.33;;;;;7.51;66.22;101987.19;2013030;28;2750262;-79
2023/01/10 05:01:21;;;;;;;;;5.50;3.67;;;;;7.51;65.76;101987.19;2013655;28;2739872;-79
2023/01/10 05:02:41;;;;;;;;;4.33;2.33;;;;;7.53;66.37;101985.44;2007790;28;2750250;-79
2023/01/10 05:03:55;;;;;;;;;4.83;4.00;;;;;7.53;66.39;101985.44;2005418;28;2748155;-79
2023/01/10 05:05:10;;;;;;;;;4.00;2.83;;;;;7.53;65.86;101977.59;2005447;28;2754496;-79
2023/01/10 05:06:24;;;;;;;;;7.00;3.83;;;;;7.54;65.76;101979.34;2011217;28;2744000;-79
2023/01/10 05:07:37;;;;;;;;;5.67;3.67;;;;;7.54;66.17;101983.69;2003641;28;2741938;-79
2023/01/10 05:08:50;;;;;;;;;3.33;3.17;;;;;7.56;66.58;101984.56;2006492;28;2739865;-79
2023/01/10 05:10:05;;;;;;;;;7.50;2.83;;;;;7.56;66.42;101984.56;1989229;28;2744523;-79
2023/01/10 05:11:18;;;;;;;;;6.50;3.00;;;;;7.56;66.06;101979.34;2004889;28;2746107;-79
2023/01/10 05:12:32;;;;;;;;;5.50;3.17;;;;;7.57;66.39;101986.31;1981609;28;2744019;-79
2023/01/10 05:13:45;;;;;;;;;5.17;4.00;;;;;7.59;66.60;101983.69;2005286;28;2754412;-79
2023/01/10 05:14:59;;;;;;;;;5.50;3.50;;;;;7.58;65.88;101982.81;1982802;28;2746103;-79
2023/01/10 05:16:12;;;;;;;;;6.33;3.83;;;;;7.59;66.26;101983.69;2004551;28;2753383;-79
2023/01/10 05:17:25;;;;;;;;;2.67;2.67;;;;;7.60;66.16;101988.06;2005404;28;2746087;-79
2023/01/10 05:18:38;;;;;;;;;4.83;3.17;;;;;7.61;66.49;101982.81;1990296;28;2736761;-79
2023/01/10 05:19:52;;;;;;;;;5.00;3.17;;;;;7.62;66.58;101983.72;2006063;28;2732027;-79
2023/01/10 05:21:08;;;;;;;;;5.17;4.50;;;;;7.64;66.22;101976.72;2004640;28;2746603;-79
2023/01/10 05:22:21;;;;;;;;;0.00;0.00;;;;;7.64;66.21;101981.97;1983008;28;2729441;-79
2023/01/10 05:23:35;;;;;;;;;7.33;2.17;;;;;7.65;66.12;101981.94;2006024;28;2754429;-79
2023/01/10 05:24:48;;;;;;;;;1.33;0.83;;;;;7.67;66.41;101984.59;2019955;28;2726312;-79
2023/01/10 05:26:06;;;;;;;;;4.67;2.33;;;;;7.68;66.39;101978.44;2018776;28;2747141;-79
2023/01/10 05:27:19;;;;;;;;;4.17;2.50;;;;;7.69;65.96;101985.44;1989722;28;2752353;-79
2023/01/10 05:28:33;;;;;;;;;3.33;2.83;;;;;7.70;65.86;101983.72;1990902;28;2747137;-79
2023/01/10 05:29:46;;;;;;;;;4.00;4.00;;;;;7.72;66.68;101979.34;2012835;28;2753389;-79
2023/01/10 05:30:59;;;;;;;;;4.00;3.17;;;;;7.72;66.07;101985.44;2012635;28;2750344;-79
2023/01/10 05:32:12;;;;;;;;;5.50;3.00;;;;;7.72;66.71;101985.44;2012778;28;2749219;-79
2023/01/10 05:33:25;;;;;;;;;5.50;2.67;;;;;7.73;66.10;101987.19;2007019;28;2748170;-79
2023/01/10 05:34:39;;;;;;;;;4.00;3.00;;;;;7.73;66.49;101989.78;2016059;28;2735721;-79
2023/01/10 05:35:49;;;;;;;;;9.00;2.33;;;;;7.75;66.26;101995.03;1992604;28;2768071;-79
2023/01/10 05:37:00;;;;;;;;;6.00;4.00;;;;;7.76;66.25;101989.81;2003643;28;2737785;-79
2023/01/10 05:38:13;;;;;;;;;5.17;3.00;;;;;7.77;65.95;101985.44;1990058;28;2736716;-79
2023/01/10 05:39:27;;;;;;;;;4.00;2.33;;;;;7.78;66.11;101986.31;2013441;28;2737766;-79
2023/01/10 05:40:40;;;;;;;;;7.83;4.33;;;;;7.79;65.99;101986.31;2012415;28;2750281;-79
2023/01/10 05:41:53;;;;;;;;;7.00;3.00;;;;;7.79;66.39;101982.81;2011545;28;2744036;-79
2023/01/10 05:43:06;;;;;;;;;4.67;4.50;;;;;7.78;66.19;101974.09;2005124;28;2746089;-79
2023/01/10 05:44:20;;;;;;;;;3.50;3.33;;;;;7.79;65.92;101977.56;2010754;28;2754451;-79
2023/01/10 05:45:33;;;;;;;;;7.50;3.00;;;;;7.79;65.99;101977.56;1992723;28;2742971;-79
2023/01/10 05:46:46;;;;;;;;;5.33;3.00;;;;;7.80;66.22;101974.97;2018777;28;2737770;-79
2023/01/10 05:47:59;;;;;;;;;7.50;5.00;;;;;7.80;66.43;101980.22;2004509;28;2743016;-79
2023/01/10 05:49:13;;;;;;;;;5.17;4.67;;;;;7.80;66.16;101980.22;2012319;28;2739857;-79
2023/01/10 05:50:26;;;;;;;;;9.17;3.50;;;;;7.79;66.11;101975.84;2012966;28;2747129;-79
2023/01/10 05:51:41;;;;;;;;;5.67;4.67;;;;;7.80;65.76;101979.34;1990202;28;2745081;-79
2023/01/10 05:52:54;;;;;;;;;3.50;3.50;;;;;7.79;65.89;101978.47;2013919;28;2740895;-79
2023/01/10 05:54:07;;;;;;;;;4.17;3.33;;;;;7.78;66.28;101976.69;2011087;28;2744035;-79
2023/01/10 05:55:21;;;;;;;;;4.50;3.50;;;;;7.78;66.14;101971.47;2013405;28;2748203;-79
2023/01/10 05:56:34;;;;;;;;;7.33;5.33;;;;;7.78;66.42;101974.09;2012319;28;2745077;-79
2023/01/10 05:57:47;;;;;;;;;8.50;3.50;;;;;7.78;66.09;101979.31;2012194;28;2750258;-79
2023/01/10 05:59:00;;;;;;;;;6.67;4.50;;;;;7.77;66.41;101977.59;1989287;28;2742334;-79
2023/01/10 06:00:14;;;;;;;;;6.83;5.00;;;;;7.78;66.05;101981.94;2019313;28;2746110;-79
2023/01/10 06:01:27;;;;;;;;;8.00;5.83;;;;;7.78;66.03;101981.94;2018211;28;2748198;-79